Time;durP1;ratioP1;P1;durP2;ratioP2;P2;SDS_P1;SDS_P2;PMS_P1;PMS_P2;Temp;Humidity;BMP_temperature;BMP_pressure;BME280_temperature;BME280_humidity;BME280_pressure;Samples;Min_cycle;Max_cycle;Signal;HPM_P1;HPM_P2
2022/07/15 00:00:24;;;;;;;7.60;3.50;;;;;;;13.65;86.58;98735.41;5125899;28;20023;-71
2022/07/15 00:02:49;;;;;;;9.80;3.78;;;;;;;13.53;86.65;98741.03;5125576;28;20249;-71
2022/07/15 00:05:15;;;;;;;7.57;3.85;;;;;;;13.58;86.53;98733.84;5125549;28;20049;-71
2022/07/15 00:07:40;;;;;;;11.63;3.88;;;;;;;13.63;86.88;98731.94;5125514;28;20039;-71
2022/07/15 00:10:24;;;;;;;8.65;3.70;;;;;;;13.58;86.99;98733.84;5125472;28;20020;-70
2022/07/15 00:12:57;;;;;;;13.60;3.78;;;;;;;13.19;87.15;98724.44;5125438;28;20031;-71
2022/07/15 00:15:25;;;;;;;16.00;3.58;;;;;;;12.98;89.37;98732.00;5125419;28;20327;-71
2022/07/15 00:17:51;;;;;;;6.38;3.03;;;;;;;13.17;88.65;98731.53;5125276;28;20027;-71
2022/07/15 00:20:18;;;;;;;7.65;3.60;;;;;;;13.11;88.26;98731.72;5125297;28;20031;-71
2022/07/15 00:22:44;;;;;;;9.20;4.10;;;;;;;13.21;88.67;98738.47;5125327;28;20025;-71
2022/07/15 00:25:10;;;;;;;8.57;3.95;;;;;;;13.27;88.57;98738.28;5125247;28;20023;-71
2022/07/15 00:27:36;;;;;;;10.38;3.95;;;;;;;13.29;89.15;98731.19;5124915;28;20042;-71
2022/07/15 00:30:03;;;;;;;12.05;4.30;;;;;;;13.27;88.62;98728.59;5125073;28;20024;-71
2022/07/15 00:32:28;;;;;;;8.65;4.00;;;;;;;13.31;88.93;98734.66;5125002;28;20024;-71
2022/07/15 00:34:54;;;;;;;8.07;3.60;;;;;;;13.12;89.00;98730.78;5125009;28;20027;-71
2022/07/15 00:37:20;;;;;;;9.90;4.75;;;;;;;13.16;89.47;98730.66;5124850;28;20087;-71
2022/07/15 00:39:46;;;;;;;7.85;3.72;;;;;;;13.17;88.85;98720.97;5125168;28;20091;-71
2022/07/15 00:42:43;;;;;;;17.13;4.57;;;;;;;13.14;88.58;98731.63;5124988;28;20046;-71
2022/07/15 00:44:58;;;;;;;9.43;4.78;;;;;;;13.07;88.65;98730.06;5124691;28;20027;-71
2022/07/15 00:47:24;;;;;;;9.95;3.90;;;;;;;12.86;89.25;98721.78;5124854;28;20023;-71
2022/07/15 00:49:49;;;;;;;8.00;3.95;;;;;;;12.90;89.08;98728.72;5124763;28;20020;-71
2022/07/15 00:52:16;;;;;;;14.77;4.25;;;;;;;12.90;89.30;98728.72;5124818;28;20031;-71
2022/07/15 00:54:43;;;;;;;8.20;3.92;;;;;;;12.88;89.29;98730.53;5124786;28;20043;-71
2022/07/15 00:57:09;;;;;;;8.65;4.20;;;;;;;12.64;89.37;98720.63;5124843;28;20019;-71
2022/07/15 00:59:36;;;;;;;7.20;3.80;;;;;;;12.64;90.96;98718.00;5124652;28;20323;-71
2022/07/15 01:02:02;;;;;;;7.07;3.80;;;;;;;12.71;90.73;98716.91;5124677;28;20087;-71
2022/07/15 01:04:28;;;;;;;7.32;4.15;;;;;;;12.66;90.13;98713.50;5124609;28;20081;-70
2022/07/15 01:06:53;;;;;;;6.03;3.75;;;;;;;12.44;90.41;98707.06;5124593;28;20019;-70
2022/07/15 01:09:20;;;;;;;9.07;3.63;;;;;;;12.50;90.39;98717.47;5124628;28;20210;-70
2022/07/15 01:11:46;;;;;;;11.88;4.22;;;;;;;12.49;90.05;98722.78;5124607;28;20024;-70
2022/07/15 01:14:12;;;;;;;7.70;3.67;;;;;;;12.41;90.19;98720.31;5124450;28;20020;-70
2022/07/15 01:16:37;;;;;;;11.75;4.25;;;;;;;12.20;90.32;98712.97;5124533;28;20029;-70
2022/07/15 01:19:04;;;;;;;10.73;4.25;;;;;;;12.21;91.44;98714.69;5124674;28;20062;-70
2022/07/15 01:21:29;;;;;;;8.05;3.97;;;;;;;12.31;92.00;98720.63;5124464;28;20023;-70
2022/07/15 01:23:55;;;;;;;15.25;4.80;;;;;;;12.35;92.11;98712.59;5124457;28;20039;-70
2022/07/15 01:26:20;;;;;;;8.43;4.18;;;;;;;12.35;92.42;98695.88;5124271;28;20036;-70
2022/07/15 01:28:45;;;;;;;7.85;4.18;;;;;;;12.22;91.81;98707.66;5124321;28;20096;-70
2022/07/15 01:31:11;;;;;;;8.52;3.97;;;;;;;12.09;91.64;98696.50;5124362;28;20311;-70
2022/07/15 01:33:38;;;;;;;10.52;4.40;;;;;;;11.93;92.85;98707.47;5124576;28;20329;-70
2022/07/15 01:36:04;;;;;;;8.98;4.18;;;;;;;11.92;93.22;98703.97;5124470;28;20053;-70
2022/07/15 01:38:29;;;;;;;7.78;4.20;;;;;;;12.01;92.74;98709.03;5124504;28;20211;-70
2022/07/15 01:40:55;;;;;;;8.60;4.18;;;;;;;11.85;92.69;98710.28;5124224;28;20116;-70
2022/07/15 01:43:21;;;;;;;8.48;4.53;;;;;;;11.89;92.97;98717.22;5124260;28;20024;-70
2022/07/15 01:45:47;;;;;;;9.57;4.57;;;;;;;11.94;92.86;98712.72;5124227;28;20054;-70
2022/07/15 01:50:58;;;;;;;10.15;4.60;;;;;;;11.94;93.83;98710.09;5124190;28;20104;-70
2022/07/15 01:53:25;;;;;;;13.43;5.25;;;;;;;11.98;94.18;98717.00;5124157;28;20319;-70
2022/07/15 01:55:50;;;;;;;9.40;4.90;;;;;;;11.87;92.99;98716.38;5124173;28;20016;-70
2022/07/15 01:58:16;;;;;;;8.15;3.95;;;;;;;11.72;92.66;98713.25;5124252;28;20078;-70
2022/07/15 02:00:42;;;;;;;9.50;4.93;;;;;;;11.42;95.70;98722.66;5124084;28;20271;-70
2022/07/15 02:03:07;;;;;;;14.38;6.35;;;;;;;11.37;97.07;98728.94;5124242;28;20023;-70
2022/07/15 02:05:33;;;;;;;9.02;4.72;;;;;;;11.47;97.09;98739.25;5124210;28;20034;-70
2022/07/15 02:07:59;;;;;;;16.70;4.50;;;;;;;11.57;96.27;98730.22;5124231;28;20016;-70
2022/07/15 02:10:24;;;;;;;9.05;4.53;;;;;;;11.56;95.43;98728.50;5124190;28;20085;-70
2022/07/15 02:12:50;;;;;;;11.85;4.68;;;;;;;11.65;95.00;98723.06;5124222;28;20054;-70
2022/07/15 02:15:15;;;;;;;11.18;4.88;;;;;;;11.47;94.40;98710.25;5126811;28;20042;-70
2022/07/15 02:17:41;;;;;;;8.75;4.68;;;;;;;11.34;94.69;98719.31;5127840;28;20024;-70
2022/07/15 02:20:07;;;;;;;13.50;5.55;;;;;;;11.26;95.56;98729.13;5127908;28;20327;-70
2022/07/15 02:22:32;;;;;;;8.68;4.07;;;;;;;11.21;95.38;98730.13;5128089;28;20024;-70
2022/07/15 02:24:58;;;;;;;9.27;4.80;;;;;;;11.38;95.87;98725.38;5127975;28;20338;-70
2022/07/15 02:27:23;;;;;;;8.20;4.30;;;;;;;11.32;94.86;98723.75;5127407;28;20231;-70
2022/07/15 02:29:48;;;;;;;8.98;4.35;;;;;;;11.26;94.59;98728.28;5127748;28;20028;-70
2022/07/15 02:32:14;;;;;;;8.35;4.55;;;;;;;11.25;94.92;98727.41;5127756;28;20061;-70
2022/07/15 02:34:40;;;;;;;13.65;5.32;;;;;;;11.28;94.94;98730.00;5127488;28;20088;-70
2022/07/15 02:37:05;;;;;;;9.98;4.70;;;;;;;11.20;94.98;98737.16;5127450;28;20020;-70
2022/07/15 02:39:31;;;;;;;12.07;5.88;;;;;;;11.18;95.68;98735.47;5127542;28;20020;-70
2022/07/15 02:41:56;;;;;;;6.55;4.88;;;;;;;11.22;95.73;98740.66;5127596;28;20031;-70
2022/07/15 02:44:22;;;;;;;11.15;5.18;;;;;;;11.23;95.99;98745.00;5127459;28;20051;-70
2022/07/15 02:46:47;;;;;;;8.88;4.80;;;;;;;11.24;95.75;98745.88;5127380;28;20312;-70
2022/07/15 02:49:12;;;;;;;10.52;4.55;;;;;;;11.08;95.14;98745.34;5127155;28;20050;-70
2022/07/15 02:51:38;;;;;;;12.13;4.90;;;;;;;11.10;94.91;98748.78;5127344;28;20104;-70
2022/07/15 02:54:03;;;;;;;7.00;4.43;;;;;;;11.14;95.37;98745.22;5126990;28;20061;-70
2022/07/15 02:56:28;;;;;;;14.90;5.78;;;;;;;11.06;95.91;98751.50;5127074;28;20019;-70
2022/07/15 02:58:54;;;;;;;7.47;4.53;;;;;;;11.01;96.11;98748.97;5126914;28;20023;-71
2022/07/15 03:01:19;;;;;;;9.93;4.70;;;;;;;11.05;96.30;98753.28;5126856;28;20064;-71
2022/07/15 03:03:45;;;;;;;12.38;5.25;;;;;;;11.01;96.10;98754.22;5127071;28;20015;-71
2022/07/15 03:06:10;;;;;;;9.88;5.00;;;;;;;11.03;95.76;98752.44;5126748;28;20026;-71
2022/07/15 03:08:36;;;;;;;8.60;4.63;;;;;;;11.02;96.20;98750.72;5126744;28;20311;-71
2022/07/15 03:11:01;;;;;;;9.85;5.13;;;;;;;11.03;96.91;98762.97;5126680;28;20095;-71
2022/07/15 03:13:26;;;;;;;10.00;5.38;;;;;;;11.02;96.45;98756.00;5126595;28;20086;-71
2022/07/15 03:15:52;;;;;;;10.00;4.90;;;;;;;10.96;96.76;98756.09;5126655;28;20026;-71
2022/07/15 03:18:17;;;;;;;7.63;4.80;;;;;;;10.76;96.58;98748.56;5126461;28;20207;-71
2022/07/15 03:20:45;;;;;;;10.48;4.82;;;;;;;10.79;96.83;98753.78;5126535;28;20023;-71
2022/07/15 03:23:11;;;;;;;9.27;4.80;;;;;;;10.70;96.25;98758.34;5126691;28;20019;-71
2022/07/15 03:25:36;;;;;;;11.80;5.18;;;;;;;10.72;96.77;98767.06;5125324;28;20023;-71
2022/07/15 03:28:02;;;;;;;9.45;5.50;;;;;;;10.81;96.74;98772.16;5126112;28;20065;-71
2022/07/15 03:30:28;;;;;;;11.27;4.47;;;;;;;10.76;96.35;98768.78;5126282;28;20072;-71
2022/07/15 03:32:54;;;;;;;8.48;5.10;;;;;;;10.54;98.19;98768.25;5126502;28;20218;-71
2022/07/15 03:35:19;;;;;;;8.60;5.00;;;;;;;10.65;98.81;98762.81;5126205;28;20095;-71
2022/07/15 03:37:44;;;;;;;10.15;4.95;;;;;;;10.74;98.00;98765.28;5126035;28;20116;-71
2022/07/15 03:40:10;;;;;;;13.65;5.47;;;;;;;10.61;96.98;98764.66;5126062;28;20026;-71
2022/07/15 03:42:35;;;;;;;13.98;6.15;;;;;;;10.49;96.67;98764.84;5126089;28;20082;-71
2022/07/15 03:45:01;;;;;;;11.15;5.18;;;;;;;10.48;97.93;98768.34;5125976;28;20023;-71
2022/07/15 03:47:29;;;;;;;11.05;5.32;;;;;;;10.67;98.43;98768.94;5125917;28;20024;-71
2022/07/15 03:49:54;;;;;;;12.63;5.32;;;;;;;10.73;97.98;98767.03;5125849;28;20015;-71
2022/07/15 03:52:20;;;;;;;9.10;5.50;;;;;;;10.70;96.61;98766.25;5125835;28;20087;-71
2022/07/15 03:54:45;;;;;;;17.00;5.10;;;;;;;10.67;96.54;98768.94;5125801;28;20319;-71
2022/07/15 03:57:11;;;;;;;7.45;4.85;;;;;;;10.46;96.45;98764.03;5125656;28;20024;-71
2022/07/15 03:59:36;;;;;;;9.00;4.68;;;;;;;10.58;97.26;98763.81;5125709;28;20047;-71
2022/07/15 04:02:01;;;;;;;8.20;4.70;;;;;;;10.69;96.79;98768.00;5125666;28;20019;-71
2022/07/15 04:04:27;;;;;;;9.20;5.70;;;;;;;10.58;96.79;98775.22;5125628;28;20019;-71
2022/07/15 04:06:52;;;;;;;12.85;5.70;;;;;;;10.71;96.99;98776.75;5125507;28;20193;-71
2022/07/15 04:09:18;;;;;;;11.95;5.32;;;;;;;10.79;96.87;98779.25;5125526;28;20090;-71
2022/07/15 04:11:43;;;;;;;6.63;5.00;;;;;;;10.90;96.33;98777.28;5125537;28;20023;-71
2022/07/15 04:14:12;;;;;;;11.15;5.30;;;;;;;10.90;95.71;98772.88;5125662;28;20031;-71
2022/07/15 04:16:38;;;;;;;8.60;5.28;;;;;;;10.91;95.75;98773.72;5125250;28;20020;-71
2022/07/15 04:19:04;;;;;;;11.00;5.20;;;;;;;11.00;95.78;98781.47;5125321;28;20085;-71
2022/07/15 04:21:29;;;;;;;10.55;5.05;;;;;;;11.06;95.85;98778.72;5125225;28;20015;-71
2022/07/15 04:23:55;;;;;;;11.93;5.70;;;;;;;11.08;96.18;98787.47;5125317;28;20125;-71
2022/07/15 04:26:20;;;;;;;9.95;6.15;;;;;;;11.19;95.39;98796.03;5125030;28;20075;-71
2022/07/15 04:28:45;;;;;;;8.27;5.47;;;;;;;11.32;94.71;98797.53;5125118;28;20039;-71
2022/07/15 04:31:11;;;;;;;9.75;5.13;;;;;;;11.29;94.37;98797.59;5125097;28;20049;-71
2022/07/15 04:33:36;;;;;;;14.93;5.40;;;;;;;11.28;94.23;98795.84;5125063;28;20297;-71
2022/07/15 04:36:01;;;;;;;14.90;4.38;;;;;;;11.22;93.25;98790.72;5124973;28;20028;-71
2022/07/15 04:38:27;;;;;;;8.48;4.95;;;;;;;11.34;93.20;98793.09;5124668;28;20031;-71
2022/07/15 04:40:52;;;;;;;9.63;4.85;;;;;;;11.42;93.85;98796.44;5124930;28;20031;-71
2022/07/15 04:43:18;;;;;;;13.43;5.03;;;;;;;11.59;93.37;98796.09;5124915;28;20315;-71
2022/07/15 04:45:43;;;;;;;12.80;5.07;;;;;;;11.72;92.92;98798.50;5124910;28;20030;-71
2022/07/15 04:50:53;;;;;;;7.45;4.28;;;;;;;14.48;81.73;98802.50;5124852;28;20041;-71
2022/07/15 04:53:20;;;;;;;6.72;3.75;;;;;;;15.39;76.86;98806.47;5124856;28;20343;-71
2022/07/15 04:55:46;;;;;;;5.78;3.47;;;;;;;16.31;73.77;98808.25;5124993;28;20307;-71
2022/07/15 04:58:14;;;;;;;9.88;3.55;;;;;;;16.79;71.20;98807.16;5124771;28;20019;-71
2022/07/15 05:00:43;;;;;;;5.35;3.28;;;;;;;17.26;69.16;98813.13;5124915;28;20030;-71
2022/07/15 05:03:09;;;;;;;5.20;3.45;;;;;;;17.57;68.10;98810.03;5124721;28;20061;-71
2022/07/15 05:05:35;;;;;;;10.68;3.85;;;;;;;17.82;67.35;98819.53;5124634;28;20027;-71
2022/07/15 05:08:00;;;;;;;6.00;3.63;;;;;;;18.14;66.58;98810.91;5124574;28;20212;-71
2022/07/15 05:10:25;;;;;;;7.45;3.00;;;;;;;18.44;64.08;98819.25;5124527;28;20026;-71
2022/07/15 05:12:51;;;;;;;7.68;3.20;;;;;;;18.91;63.57;98825.81;5124551;28;20032;-71
2022/07/15 05:15:16;;;;;;;10.38;3.53;;;;;;;18.80;62.95;98828.16;5124785;28;20015;-71
2022/07/15 05:17:42;;;;;;;5.28;3.00;;;;;;;19.10;61.86;98831.97;5124464;28;20088;-71
2022/07/15 05:20:07;;;;;;;4.25;3.13;;;;;;;19.54;62.05;98837.72;5124573;28;20294;-71
2022/07/15 05:22:33;;;;;;;5.78;2.88;;;;;;;20.06;60.35;98842.91;5124478;28;20323;-71
2022/07/15 05:24:58;;;;;;;10.88;3.10;;;;;;;20.27;60.15;98836.44;5124448;28;20154;-71
2022/07/15 05:27:23;;;;;;;6.25;3.08;;;;;;;20.49;58.50;98842.31;5124228;28;20043;-71
2022/07/15 05:29:49;;;;;;;4.85;3.15;;;;;;;20.61;58.59;98836.28;5124411;28;20065;-71
2022/07/15 05:32:14;;;;;;;11.70;3.70;;;;;;;20.76;58.24;98843.41;5124372;28;20024;-71
2022/07/15 05:34:40;;;;;;;6.20;3.00;;;;;;;20.55;59.08;98836.63;5124323;28;20050;-71
2022/07/15 05:37:05;;;;;;;8.98;3.40;;;;;;;21.16;58.72;98848.25;5124183;28;20024;-71
2022/07/15 05:39:30;;;;;;;6.72;3.47;;;;;;;21.19;57.85;98845.38;5124261;28;20023;-71
2022/07/15 05:41:58;;;;;;;5.40;3.03;;;;;;;21.86;57.04;98842.22;5124249;28;20027;-71
2022/07/15 05:44:23;;;;;;;6.15;3.00;;;;;;;22.43;56.13;98853.84;5124247;28;20019;-71
2022/07/15 05:46:50;;;;;;;5.28;2.75;;;;;;;22.49;56.77;98856.09;5124259;28;20084;-71
2022/07/15 05:49:16;;;;;;;7.32;3.40;;;;;;;23.07;54.84;98867.53;5125354;28;20334;-71
2022/07/15 05:51:41;;;;;;;8.73;3.20;;;;;;;23.34;54.01;98871.09;5128258;28;20025;-71
2022/07/15 05:54:06;;;;;;;8.70;2.67;;;;;;;23.14;51.90;98850.03;5128181;28;20023;-71
2022/07/15 05:56:32;;;;;;;7.20;3.00;;;;;;;23.53;52.33;98870.72;5128064;28;20315;-71
2022/07/15 05:58:57;;;;;;;8.65;2.67;;;;;;;24.52;49.37;98864.53;5128086;28;20315;-71
2022/07/15 06:01:23;;;;;;;8.60;2.40;;;;;;;24.52;49.60;98859.16;5128023;28;20271;-71
2022/07/15 06:03:49;;;;;;;6.28;2.70;;;;;;;23.98;48.93;98852.31;5128199;28;20068;-71
2022/07/15 06:06:14;;;;;;;4.43;2.13;;;;;;;24.97;47.85;98866.59;5127971;28;20039;-71
2022/07/15 06:08:40;;;;;;;8.02;2.28;;;;;;;24.90;46.55;98865.31;5127949;28;20031;-71
2022/07/15 06:11:06;;;;;;;10.30;2.40;;;;;;;24.88;46.60;98861.91;5127858;28;20091;-71
2022/07/15 06:13:31;;;;;;;5.03;2.33;;;;;;;25.71;46.70;98876.28;5127803;28;20023;-71
2022/07/15 06:15:56;;;;;;;6.22;2.50;;;;;;;25.80;45.60;98881.84;5127987;28;20078;-71
2022/07/15 06:18:22;;;;;;;5.47;2.17;;;;;;;26.34;44.07;98882.09;5127619;28;20026;-71
2022/07/15 06:20:47;;;;;;;6.82;2.33;;;;;;;26.21;44.15;98873.25;5127673;28;20207;-71
2022/07/15 06:23:13;;;;;;;8.48;2.38;;;;;;;25.48;45.18;98871.78;5127592;28;20019;-71
2022/07/15 06:25:38;;;;;;;6.22;2.13;;;;;;;25.32;46.36;98876.63;5127680;28;20023;-71
2022/07/15 06:28:04;;;;;;;7.15;2.25;;;;;;;26.27;44.77;98878.16;5127290;28;20035;-71
2022/07/15 06:30:30;;;;;;;7.65;2.28;;;;;;;25.92;44.23;98877.34;5127468;28;20024;-71
2022/07/15 06:32:57;;;;;;;5.72;2.33;;;;;;;26.52;44.84;98877.94;5127438;28;20024;-71
2022/07/15 06:35:22;;;;;;;6.65;2.08;;;;;;;26.57;43.30;98875.72;5127405;28;20035;-71
2022/07/15 06:37:48;;;;;;;7.18;2.38;;;;;;;26.75;42.85;98874.28;5127234;28;20338;-71
2022/07/15 06:40:14;;;;;;;10.10;2.28;;;;;;;26.66;43.03;98872.31;5127261;28;20023;-71
2022/07/15 06:42:39;;;;;;;7.20;1.90;;;;;;;26.24;43.75;98856.81;5127279;28;20087;-71
2022/07/15 06:45:05;;;;;;;9.35;2.50;;;;;;;26.96;42.97;98872.53;5127222;28;20028;-71
2022/07/15 06:47:31;;;;;;;5.32;2.10;;;;;;;27.54;41.94;98880.25;5127155;28;20023;-71
2022/07/15 06:49:56;;;;;;;10.15;2.03;;;;;;;27.20;42.60;98873.19;5127167;28;20033;-71
2022/07/15 06:52:22;;;;;;;6.70;2.55;;;;;;;27.41;42.08;98868.75;5127087;28;20019;-71
2022/07/15 06:54:47;;;;;;;6.20;2.13;;;;;;;27.82;40.85;98874.22;5127035;28;20039;-71
2022/07/15 06:57:14;;;;;;;5.90;1.90;;;;;;;27.69;40.79;98862.75;5126870;28;20342;-71
2022/07/15 06:59:39;;;;;;;5.57;2.08;;;;;;;27.67;40.84;98862.00;5126877;28;20117;-71
2022/07/15 07:02:05;;;;;;;6.82;1.77;;;;;;;27.72;39.30;98856.19;5126875;28;20027;-71
2022/07/15 07:04:31;;;;;;;6.95;1.70;;;;;;;27.22;40.33;98874.81;5127058;28;20019;-71
2022/07/15 07:06:56;;;;;;;5.20;1.75;;;;;;;26.00;41.74;98847.97;5126739;28;20023;-71
2022/07/15 07:09:21;;;;;;;3.08;1.60;;;;;;;27.01;41.43;98870.31;5126762;28;20039;-71
2022/07/15 07:11:47;;;;;;;7.93;2.03;;;;;;;26.67;42.34;98855.16;5126714;28;20027;-71
2022/07/15 07:14:13;;;;;;;9.05;2.58;;;;;;;27.26;40.80;98864.63;5126899;28;20027;-71
2022/07/15 07:16:38;;;;;;;6.82;2.10;;;;;;;26.97;40.22;98853.50;5126501;28;20379;-71
2022/07/15 07:19:04;;;;;;;7.38;1.80;;;;;;;27.61;40.42;98859.81;5126490;28;20226;-71
2022/07/15 07:21:29;;;;;;;4.10;1.85;;;;;;;27.93;40.49;98871.47;5126492;28;20023;-71
2022/07/15 07:23:55;;;;;;;7.50;2.17;;;;;;;28.36;39.31;98863.19;5126466;28;20023;-71
2022/07/15 07:26:20;;;;;;;5.50;1.85;;;;;;;28.40;38.75;98845.69;5126464;28;20034;-71
2022/07/15 07:28:46;;;;;;;7.35;2.42;;;;;;;28.48;38.54;98854.91;5126335;28;20248;-71
2022/07/15 07:31:13;;;;;;;5.68;1.60;;;;;;;28.88;37.81;98874.72;5126591;28;20015;-71
2022/07/15 07:33:39;;;;;;;4.30;1.80;;;;;;;29.17;37.65;98872.97;5126220;28;20334;-71
2022/07/15 07:36:06;;;;;;;5.38;1.80;;;;;;;28.32;38.40;98857.19;5126196;28;20043;-71
2022/07/15 07:38:32;;;;;;;5.13;1.60;;;;;;;28.58;37.47;98868.47;5126351;28;20240;-71
2022/07/15 07:40:58;;;;;;;4.25;1.60;;;;;;;28.15;38.29;98863.22;5126123;28;20375;-71
2022/07/15 07:43:24;;;;;;;6.80;1.52;;;;;;;28.21;38.90;98859.97;5126093;28;20023;-71
2022/07/15 07:45:49;;;;;;;6.55;1.90;;;;;;;27.88;39.00;98867.47;5126342;28;20030;-71
2022/07/15 07:48:16;;;;;;;6.93;1.55;;;;;;;27.34;39.41;98851.34;5125994;28;20038;-71
2022/07/15 07:50:43;;;;;;;7.60;1.95;;;;;;;27.59;40.34;98886.16;5125993;28;20023;-71
2022/07/15 07:53:08;;;;;;;4.45;1.65;;;;;;;28.11;38.69;98875.31;5125939;28;20028;-71
2022/07/15 07:55:33;;;;;;;5.63;1.90;;;;;;;28.50;37.93;98876.41;5125824;28;20023;-71
2022/07/15 07:57:59;;;;;;;5.32;1.92;;;;;;;30.19;36.96;98896.91;5125678;28;20015;-71
2022/07/15 08:00:28;;;;;;;7.07;1.60;;;;;;;29.03;36.87;98876.09;5125616;28;20030;-71
2022/07/15 08:02:55;;;;;;;8.27;1.63;;;;;;;27.04;39.88;98870.06;5125707;28;20023;-71
2022/07/15 08:05:21;;;;;;;6.63;1.70;;;;;;;27.51;40.03;98885.94;5125643;28;20020;-71
2022/07/15 08:07:47;;;;;;;6.28;1.60;;;;;;;27.66;39.27;98881.94;5125845;28;20027;-71
2022/07/15 08:10:16;;;;;;;7.85;1.60;;;;;;;26.59;41.17;98862.97;5125533;28;20024;-71
2022/07/15 08:12:42;;;;;;;8.73;1.60;;;;;;;25.95;43.53;98860.91;5124992;28;20020;-71
2022/07/15 08:15:10;;;;;;;4.22;1.70;;;;;;;25.40;43.73;98864.28;5125395;28;20019;-71
2022/07/15 08:17:40;;;;;;;9.27;1.85;;;;;;;24.86;44.06;98858.47;5125287;28;20020;-71
2022/07/15 08:20:09;;;;;;;4.53;1.67;;;;;;;24.92;44.41;98858.00;5125611;28;20051;-71
2022/07/15 08:22:35;;;;;;;5.63;2.00;;;;;;;25.04;46.06;98861.63;5125304;28;20030;-71
2022/07/15 08:25:01;;;;;;;6.25;1.55;;;;;;;24.43;46.33;98857.09;5125248;28;20040;-71
2022/07/15 08:27:26;;;;;;;11.68;2.22;;;;;;;25.53;44.93;98872.31;5124980;28;20441;-71
2022/07/15 08:29:52;;;;;;;6.07;1.40;;;;;;;27.89;41.42;98912.47;5125215;28;20019;-71
2022/07/15 08:32:17;;;;;;;2.92;1.38;;;;;;;29.34;39.94;98911.25;5125230;28;20019;-71
2022/07/15 08:34:43;;;;;;;4.78;1.83;;;;;;;29.29;37.13;98889.13;5125055;28;20023;-71
2022/07/15 08:37:09;;;;;;;5.47;1.65;;;;;;;29.52;37.75;98904.16;5125039;28;20019;-71
2022/07/15 08:39:38;;;;;;;5.57;1.63;;;;;;;29.93;35.57;98914.75;5124995;28;20019;-71
2022/07/15 08:42:04;;;;;;;2.90;1.70;;;;;;;29.81;36.35;98891.47;5125256;28;20218;-71
2022/07/15 08:44:29;;;;;;;5.38;1.83;;;;;;;30.43;36.52;98909.00;5124945;28;20024;-71
2022/07/15 08:47:00;;;;;;;4.10;1.60;;;;;;;30.00;35.92;98902.31;5124923;28;20085;-71
2022/07/15 08:49:30;;;;;;;4.45;1.65;;;;;;;30.30;34.99;98907.59;5124915;28;20101;-71
2022/07/15 08:51:58;;;;;;;5.22;1.77;;;;;;;30.90;35.81;98912.56;5124822;28;20030;-71
2022/07/15 08:54:24;;;;;;;10.07;1.95;;;;;;;30.40;34.93;98905.72;5124811;28;20339;-71
2022/07/15 08:56:50;;;;;;;6.18;1.58;;;;;;;30.48;35.68;98903.13;5124732;28;20016;-71
2022/07/15 08:59:16;;;;;;;7.43;2.00;;;;;;;30.87;33.72;98896.56;5124747;28;20319;-71
2022/07/15 09:01:44;;;;;;;3.60;1.38;;;;;;;30.67;34.08;98903.06;5124965;28;20023;-71
2022/07/15 09:04:09;;;;;;;5.63;1.70;;;;;;;31.28;33.39;98901.53;5124711;28;20020;-73
2022/07/15 09:06:39;;;;;;;5.45;1.75;;;;;;;30.92;34.07;98891.53;5124653;28;20020;-73
2022/07/15 09:09:32;;;;;;;7.72;2.10;;;;;;;30.75;34.10;98890.47;5124580;28;20031;-71
2022/07/15 09:11:59;;;;;;;5.95;1.73;;;;;;;30.56;34.68;98892.38;5124529;28;20020;-71
2022/07/15 09:14:29;;;;;;;7.50;1.88;;;;;;;30.76;33.71;98891.31;5124539;28;20030;-71
2022/07/15 09:17:09;;;;;;;6.60;2.00;;;;;;;31.48;33.75;98894.97;5124485;28;20031;-71
2022/07/15 09:20:06;;;;;;;8.63;2.00;;;;;;;31.30;34.83;98894.06;5124500;28;20085;-71
2022/07/15 09:22:56;;;;;;;12.52;2.50;;;;;;;31.10;34.04;98889.72;5124724;28;20031;-71
2022/07/15 09:25:22;;;;;;;4.75;1.92;;;;;;;30.49;33.62;98885.81;5127569;28;20032;-70
2022/07/15 09:27:49;;;;;;;4.40;2.03;;;;;;;30.14;33.39;98872.00;5128549;28;20103;-70
2022/07/15 09:36:15;;;;;;;8.15;2.33;;;;;;;29.52;35.40;98877.88;5128852;28;20019;-71
2022/07/15 09:38:55;;;;;;;8.98;2.13;;;;;;;30.44;34.80;98899.81;5128419;28;20016;-71
2022/07/15 09:41:36;;;;;;;5.90;1.85;;;;;;;31.01;34.82;98893.34;5128327;28;20099;-71
2022/07/15 09:44:07;;;;;;;5.65;2.15;;;;;;;31.80;33.75;98902.59;5128457;28;20051;-71
2022/07/15 09:46:42;;;;;;;9.88;1.92;;;;;;;31.44;33.17;98885.38;5128367;28;20306;-71
2022/07/15 09:49:08;;;;;;;9.05;2.28;;;;;;;31.32;33.41;98880.31;5128286;28;20137;-71
2022/07/15 09:51:43;;;;;;;14.27;2.10;;;;;;;31.41;34.24;98885.69;5128253;28;20019;-71
2022/07/15 09:54:12;;;;;;;6.22;2.22;;;;;;;29.08;35.74;98862.94;5128179;28;20031;-71
2022/07/15 09:56:38;;;;;;;6.47;1.80;;;;;;;29.95;36.17;98880.16;5128069;28;20093;-71
2022/07/15 09:59:03;;;;;;;7.50;2.50;;;;;;;30.80;33.86;98900.88;5128128;28;20023;-71
2022/07/15 10:01:29;;;;;;;7.50;2.30;;;;;;;31.08;33.51;98889.88;5128073;28;20029;-71
2022/07/15 10:03:56;;;;;;;6.10;2.10;;;;;;;31.55;32.41;98893.34;5128029;28;20019;-71
2022/07/15 10:06:26;;;;;;;8.57;1.98;;;;;;;31.24;32.73;98872.88;5128004;28;20019;-71
2022/07/15 10:08:52;;;;;;;10.98;2.45;;;;;;;31.57;33.00;98880.41;5127908;28;20395;-71
2022/07/15 10:11:17;;;;;;;6.35;2.30;;;;;;;31.92;31.29;98885.88;5127849;28;20339;-71
2022/07/15 10:14:11;;;;;;;8.95;2.15;;;;;;;31.06;31.11;98863.81;5127847;28;20041;-71
2022/07/15 10:16:42;;;;;;;8.27;2.28;;;;;;;29.24;34.80;98847.00;5127710;28;20126;-71
2022/07/15 10:19:20;;;;;;;6.47;1.70;;;;;;;30.83;36.47;98889.72;5127985;28;20365;-71
2022/07/15 10:22:24;;;;;;;9.48;2.10;;;;;;;32.21;33.37;98891.06;5127735;28;20015;-71
2022/07/15 10:24:56;;;;;;;8.95;2.25;;;;;;;29.88;34.66;98847.34;5025235;28;20044;-71
2022/07/15 10:27:51;;;;;;;10.32;2.17;;;;;;;30.39;34.73;98869.53;5025172;28;20053;-71
2022/07/15 10:30:22;;;;;;;4.88;2.00;;;;;;;30.52;34.17;98869.19;5098028;28;20019;-71
2022/07/15 10:33:02;;;;;;;7.70;2.00;;;;;;;31.14;33.45;98874.81;5127424;28;20027;-71
2022/07/15 10:35:39;;;;;;;7.68;2.10;;;;;;;30.99;34.10;98868.16;5126954;28;20323;-71
2022/07/15 10:38:24;;;;;;;4.93;2.03;;;;;;;31.71;33.30;98874.44;5127529;28;20287;-71
2022/07/15 10:41:14;;;;;;;8.40;2.42;;;;;;;31.38;31.78;98856.06;5127342;28;20034;-71
2022/07/15 10:43:51;;;;;;;4.72;1.70;;;;;;;32.14;32.29;98869.03;5127213;28;20022;-71
2022/07/15 10:46:16;;;;;;;7.47;1.98;;;;;;;32.57;32.02;98860.84;5127214;28;20023;-71
2022/07/15 10:48:46;;;;;;;10.60;2.60;;;;;;;31.59;32.41;98848.47;5127204;28;20024;-71
2022/07/15 10:51:32;;;;;;;6.15;2.38;;;;;;;30.53;34.17;98839.16;5127249;28;20253;-71
2022/07/15 10:53:57;;;;;;;3.63;1.85;;;;;;;29.54;35.85;98837.88;5126972;28;20246;-71
2022/07/15 10:56:30;;;;;;;8.18;2.28;;;;;;;28.21;37.09;98824.78;5126915;28;20019;-71
2022/07/15 10:59:14;;;;;;;9.60;2.10;;;;;;;27.42;38.12;98815.56;5126965;28;20319;-71
2022/07/15 11:01:43;;;;;;;10.57;2.65;;;;;;;27.12;37.27;98814.38;5126877;28;20024;-71
2022/07/15 11:04:24;;;;;;;4.85;2.10;;;;;;;26.81;37.49;98814.34;5126978;28;20094;-71
2022/07/15 11:07:01;;;;;;;5.80;2.47;;;;;;;26.74;38.27;98818.56;5126871;28;20015;-71
2022/07/15 11:10:13;;;;;;;5.75;1.95;;;;;;;27.91;37.76;98827.47;5126762;28;20012;-71
2022/07/15 11:12:47;;;;;;;6.07;1.97;;;;;;;28.38;36.36;98834.97;5127146;28;20049;-71
2022/07/15 11:15:16;;;;;;;6.13;2.25;;;;;;;29.35;35.54;98837.03;5126716;28;20034;-71
2022/07/15 11:17:45;;;;;;;3.90;2.03;;;;;;;29.32;35.51;98832.75;5126768;28;20335;-71
2022/07/15 11:20:14;;;;;;;5.40;1.98;;;;;;;29.90;35.98;98834.47;5126632;28;20298;-71
2022/07/15 11:22:51;;;;;;;5.50;2.10;;;;;;;29.76;35.06;98821.34;5126522;28;20020;-71
2022/07/15 11:25:21;;;;;;;7.47;1.98;;;;;;;29.76;34.55;98820.47;5126502;28;20090;-71
2022/07/15 11:28:02;;;;;;;4.20;1.88;;;;;;;30.42;33.82;98824.91;5126249;28;20034;-71
2022/07/15 11:30:44;;;;;;;6.05;1.65;;;;;;;30.04;34.17;98825.00;5126660;28;20393;-71
2022/07/15 11:33:14;;;;;;;7.95;2.17;;;;;;;29.19;34.61;98811.34;5126565;28;20088;-71
2022/07/15 11:35:52;;;;;;;4.88;1.90;;;;;;;28.89;35.72;98808.66;5126516;28;20024;-71
2022/07/15 11:38:20;;;;;;;4.28;1.90;;;;;;;28.68;34.74;98805.22;5126249;28;20106;-71
2022/07/15 11:46:22;;;;;;;5.40;2.00;;;;;;;27.75;38.12;98802.72;5125526;28;20042;-71
2022/07/15 11:48:48;;;;;;;6.22;1.90;;;;;;;27.53;38.81;98812.78;5125730;28;20028;-71
2022/07/15 11:51:14;;;;;;;7.32;2.08;;;;;;;28.03;38.48;98818.28;5126066;28;20357;-71